sensor_id;sensor_type;location;lat;lon;timestamp;P1;durP1;ratioP1;P2;durP2;ratioP2
77302;SDS011;66363;49.828;7.856;2023-04-01T00:00:45;4.60;;;1.17;;
77302;SDS011;66363;49.828;7.856;2023-04-01T00:03:11;3.25;;;1.30;;
77302;SDS011;66363;49.828;7.856;2023-04-01T00:05:36;4.63;;;1.15;;
77302;SDS011;66363;49.828;7.856;2023-04-01T00:08:02;1.92;;;1.10;;
77302;SDS011;66363;49.828;7.856;2023-04-01T00:10:28;2.63;;;1.15;;
77302;SDS011;66363;49.828;7.856;2023-04-01T00:12:54;1.52;;;1.15;;
77302;SDS011;66363;49.828;7.856;2023-04-01T00:15:19;2.58;;;1.05;;
77302;SDS011;66363;49.828;7.856;2023-04-01T00:17:47;4.50;;;1.35;;
77302;SDS011;66363;49.828;7.856;2023-04-01T00:20:13;3.03;;;1.70;;
77302;SDS011;66363;49.828;7.856;2023-04-01T00:22:38;3.47;;;1.20;;
77302;SDS011;66363;49.828;7.856;2023-04-01T00:25:04;3.63;;;1.58;;
77302;SDS011;66363;49.828;7.856;2023-04-01T00:27:30;4.50;;;1.48;;
77302;SDS011;66363;49.828;7.856;2023-04-01T00:29:56;3.85;;;1.40;;
77302;SDS011;66363;49.828;7.856;2023-04-01T00:32:22;1.50;;;1.35;;
77302;SDS011;66363;49.828;7.856;2023-04-01T00:34:51;4.80;;;1.48;;
77302;SDS011;66363;49.828;7.856;2023-04-01T00:37:17;1.38;;;0.93;;
77302;SDS011;66363;49.828;7.856;2023-04-01T00:39:43;1.90;;;1.08;;
77302;SDS011;66363;49.828;7.856;2023-04-01T00:42:09;5.68;;;1.42;;
77302;SDS011;66363;49.828;7.856;2023-04-01T00:44:36;2.38;;;1.25;;
77302;SDS011;66363;49.828;7.856;2023-04-01T00:47:03;3.22;;;1.30;;
77302;SDS011;66363;49.828;7.856;2023-04-01T00:49:29;4.32;;;1.27;;
77302;SDS011;66363;49.828;7.856;2023-04-01T00:52:00;4.82;;;1.10;;
77302;SDS011;66363;49.828;7.856;2023-04-01T00:54:28;2.20;;;0.90;;
77302;SDS011;66363;49.828;7.856;2023-04-01T00:56:56;1.35;;;1.15;;
77302;SDS011;66363;49.828;7.856;2023-04-01T00:59:26;2.92;;;1.13;;
77302;SDS011;66363;49.828;7.856;2023-04-01T01:01:55;2.70;;;1.05;;
77302;SDS011;66363;49.828;7.856;2023-04-01T01:04:21;6.75;;;1.20;;
77302;SDS011;66363;49.828;7.856;2023-04-01T01:06:51;5.18;;;1.38;;
77302;SDS011;66363;49.828;7.856;2023-04-01T01:09:35;2.15;;;1.02;;
77302;SDS011;66363;49.828;7.856;2023-04-01T01:12:11;2.03;;;1.05;;
77302;SDS011;66363;49.828;7.856;2023-04-01T01:14:43;2.28;;;1.05;;
77302;SDS011;66363;49.828;7.856;2023-04-01T01:17:18;5.97;;;1.10;;
77302;SDS011;66363;49.828;7.856;2023-04-01T01:19:55;1.80;;;1.17;;
77302;SDS011;66363;49.828;7.856;2023-04-01T01:22:38;5.70;;;1.15;;
77302;SDS011;66363;49.828;7.856;2023-04-01T01:25:18;2.03;;;0.93;;
77302;SDS011;66363;49.828;7.856;2023-04-01T01:27:58;2.33;;;1.52;;
77302;SDS011;66363;49.828;7.856;2023-04-01T01:30:43;2.28;;;1.15;;
77302;SDS011;66363;49.828;7.856;2023-04-01T01:38:32;4.55;;;1.52;;
77302;SDS011;66363;49.828;7.856;2023-04-01T01:41:00;2.58;;;0.98;;
77302;SDS011;66363;49.828;7.856;2023-04-01T01:43:30;2.72;;;1.00;;
77302;SDS011;66363;49.828;7.856;2023-04-01T01:45:59;3.65;;;1.52;;
77302;SDS011;66363;49.828;7.856;2023-04-01T01:48:28;4.88;;;1.27;;
77302;SDS011;66363;49.828;7.856;2023-04-01T01:50:56;0.68;;;0.65;;
77302;SDS011;66363;49.828;7.856;2023-04-01T01:53:24;3.28;;;1.38;;
77302;SDS011;66363;49.828;7.856;2023-04-01T01:55:49;2.80;;;0.98;;
77302;SDS011;66363;49.828;7.856;2023-04-01T01:58:17;2.35;;;1.75;;
77302;SDS011;66363;49.828;7.856;2023-04-01T02:03:15;2.45;;;0.95;;
77302;SDS011;66363;49.828;7.856;2023-04-01T02:05:43;2.25;;;0.95;;
77302;SDS011;66363;49.828;7.856;2023-04-01T02:08:10;6.22;;;1.30;;
77302;SDS011;66363;49.828;7.856;2023-04-01T02:10:42;1.27;;;0.95;;
77302;SDS011;66363;49.828;7.856;2023-04-01T02:13:15;2.75;;;1.10;;
77302;SDS011;66363;49.828;7.856;2023-04-01T02:15:45;1.08;;;0.95;;
77302;SDS011;66363;49.828;7.856;2023-04-01T02:18:14;5.80;;;1.30;;
77302;SDS011;66363;49.828;7.856;2023-04-01T02:20:43;2.00;;;1.05;;
77302;SDS011;66363;49.828;7.856;2023-04-01T02:23:10;1.52;;;0.80;;
77302;SDS011;66363;49.828;7.856;2023-04-01T02:25:37;6.38;;;1.48;;
77302;SDS011;66363;49.828;7.856;2023-04-01T02:28:05;4.78;;;1.00;;
77302;SDS011;66363;49.828;7.856;2023-04-01T02:30:33;1.98;;;1.20;;
77302;SDS011;66363;49.828;7.856;2023-04-01T02:33:01;3.35;;;1.27;;
77302;SDS011;66363;49.828;7.856;2023-04-01T02:35:29;2.40;;;1.10;;
77302;SDS011;66363;49.828;7.856;2023-04-01T02:37:54;1.40;;;0.90;;
77302;SDS011;66363;49.828;7.856;2023-04-01T02:40:21;3.47;;;1.13;;
77302;SDS011;66363;49.828;7.856;2023-04-01T02:42:47;4.05;;;1.50;;
77302;SDS011;66363;49.828;7.856;2023-04-01T02:45:14;1.95;;;1.15;;
77302;SDS011;66363;49.828;7.856;2023-04-01T02:47:40;2.38;;;1.00;;
77302;SDS011;66363;49.828;7.856;2023-04-01T02:50:07;2.15;;;0.80;;
77302;SDS011;66363;49.828;7.856;2023-04-01T02:52:33;4.63;;;1.33;;
77302;SDS011;66363;49.828;7.856;2023-04-01T02:54:59;2.63;;;1.42;;
77302;SDS011;66363;49.828;7.856;2023-04-01T02:57:24;1.20;;;0.93;;
77302;SDS011;66363;49.828;7.856;2023-04-01T02:59:50;2.15;;;1.02;;
77302;SDS011;66363;49.828;7.856;2023-04-01T03:02:17;1.35;;;0.80;;
77302;SDS011;66363;49.828;7.856;2023-04-01T03:04:43;3.20;;;1.10;;
77302;SDS011;66363;49.828;7.856;2023-04-01T03:07:09;2.25;;;1.02;;
77302;SDS011;66363;49.828;7.856;2023-04-01T03:09:35;1.70;;;0.95;;
77302;SDS011;66363;49.828;7.856;2023-04-01T03:12:00;2.47;;;1.20;;
77302;SDS011;66363;49.828;7.856;2023-04-01T03:14:26;2.78;;;1.10;;
77302;SDS011;66363;49.828;7.856;2023-04-01T03:16:52;5.00;;;1.35;;
77302;SDS011;66363;49.828;7.856;2023-04-01T03:19:19;3.97;;;1.40;;
77302;SDS011;66363;49.828;7.856;2023-04-01T03:21:45;2.80;;;1.27;;
77302;SDS011;66363;49.828;7.856;2023-04-01T03:24:10;5.10;;;1.50;;
77302;SDS011;66363;49.828;7.856;2023-04-01T03:26:36;3.03;;;1.42;;
77302;SDS011;66363;49.828;7.856;2023-04-01T03:29:02;1.92;;;1.00;;
77302;SDS011;66363;49.828;7.856;2023-04-01T03:31:27;5.43;;;1.13;;
77302;SDS011;66363;49.828;7.856;2023-04-01T03:33:53;1.73;;;0.80;;
77302;SDS011;66363;49.828;7.856;2023-04-01T03:36:20;8.75;;;1.40;;
77302;SDS011;66363;49.828;7.856;2023-04-01T03:38:46;3.33;;;1.10;;
77302;SDS011;66363;49.828;7.856;2023-04-01T03:41:11;2.80;;;0.80;;
77302;SDS011;66363;49.828;7.856;2023-04-01T03:43:37;2.40;;;1.30;;
77302;SDS011;66363;49.828;7.856;2023-04-01T03:46:03;4.47;;;1.20;;
77302;SDS011;66363;49.828;7.856;2023-04-01T03:48:29;4.13;;;1.15;;
77302;SDS011;66363;49.828;7.856;2023-04-01T03:50:54;2.85;;;1.10;;
77302;SDS011;66363;49.828;7.856;2023-04-01T03:53:22;1.50;;;0.85;;
77302;SDS011;66363;49.828;7.856;2023-04-01T03:55:47;3.83;;;1.17;;
77302;SDS011;66363;49.828;7.856;2023-04-01T03:58:13;4.13;;;1.10;;
77302;SDS011;66363;49.828;7.856;2023-04-01T04:00:39;2.28;;;0.90;;
77302;SDS011;66363;49.828;7.856;2023-04-01T04:03:05;1.92;;;1.10;;
77302;SDS011;66363;49.828;7.856;2023-04-01T04:07:57;2.70;;;1.40;;
77302;SDS011;66363;49.828;7.856;2023-04-01T04:10:24;3.85;;;1.20;;
77302;SDS011;66363;49.828;7.856;2023-04-01T04:12:50;1.52;;;1.10;;
77302;SDS011;66363;49.828;7.856;2023-04-01T04:15:16;7.40;;;1.30;;
77302;SDS011;66363;49.828;7.856;2023-04-01T04:17:42;5.90;;;1.33;;
77302;SDS011;66363;49.828;7.856;2023-04-01T04:20:09;2.90;;;1.20;;
77302;SDS011;66363;49.828;7.856;2023-04-01T04:22:35;2.33;;;0.98;;
77302;SDS011;66363;49.828;7.856;2023-04-01T04:25:00;3.17;;;1.02;;
77302;SDS011;66363;49.828;7.856;2023-04-01T04:27:27;3.83;;;1.17;;
77302;SDS011;66363;49.828;7.856;2023-04-01T04:29:53;3.08;;;1.25;;
77302;SDS011;66363;49.828;7.856;2023-04-01T04:32:18;2.58;;;1.30;;
77302;SDS011;66363;49.828;7.856;2023-04-01T04:34:44;6.03;;;1.30;;
77302;SDS011;66363;49.828;7.856;2023-04-01T04:37:10;1.88;;;0.93;;
77302;SDS011;66363;49.828;7.856;2023-04-01T04:39:35;3.78;;;1.05;;
77302;SDS011;66363;49.828;7.856;2023-04-01T04:42:01;2.03;;;1.15;;
77302;SDS011;66363;49.828;7.856;2023-04-01T04:44:28;3.67;;;0.95;;
77302;SDS011;66363;49.828;7.856;2023-04-01T04:46:54;2.08;;;1.10;;
77302;SDS011;66363;49.828;7.856;2023-04-01T04:49:20;1.92;;;0.98;;
77302;SDS011;66363;49.828;7.856;2023-04-01T04:51:45;5.45;;;1.42;;
77302;SDS011;66363;49.828;7.856;2023-04-01T04:54:11;2.55;;;0.90;;
77302;SDS011;66363;49.828;7.856;2023-04-01T04:56:36;5.47;;;1.13;;
77302;SDS011;66363;49.828;7.856;2023-04-01T04:59:02;3.05;;;1.30;;
77302;SDS011;66363;49.828;7.856;2023-04-01T05:01:29;1.70;;;0.88;;
77302;SDS011;66363;49.828;7.856;2023-04-01T05:03:55;1.88;;;0.90;;
77302;SDS011;66363;49.828;7.856;2023-04-01T05:06:21;4.30;;;0.90;;
77302;SDS011;66363;49.828;7.856;2023-04-01T05:08:46;2.88;;;0.77;;
77302;SDS011;66363;49.828;7.856;2023-04-01T05:11:13;1.83;;;0.85;;
77302;SDS011;66363;49.828;7.856;2023-04-01T05:13:40;2.45;;;1.15;;
77302;SDS011;66363;49.828;7.856;2023-04-01T05:16:07;2.08;;;1.00;;
77302;SDS011;66363;49.828;7.856;2023-04-01T05:18:35;3.35;;;1.13;;
77302;SDS011;66363;49.828;7.856;2023-04-01T05:21:00;2.63;;;0.73;;
77302;SDS011;66363;49.828;7.856;2023-04-01T05:23:26;1.63;;;0.70;;
77302;SDS011;66363;49.828;7.856;2023-04-01T05:25:51;3.42;;;0.80;;
77302;SDS011;66363;49.828;7.856;2023-04-01T05:28:17;2.95;;;0.65;;
77302;SDS011;66363;49.828;7.856;2023-04-01T05:30:43;1.73;;;0.70;;
77302;SDS011;66363;49.828;7.856;2023-04-01T05:33:09;2.88;;;0.80;;
77302;SDS011;66363;49.828;7.856;2023-04-01T05:35:37;1.75;;;0.80;;
77302;SDS011;66363;49.828;7.856;2023-04-01T05:38:03;1.98;;;0.90;;
77302;SDS011;66363;49.828;7.856;2023-04-01T05:40:29;1.42;;;0.45;;
77302;SDS011;66363;49.828;7.856;2023-04-01T05:42:55;0.68;;;0.50;;
77302;SDS011;66363;49.828;7.856;2023-04-01T05:45:21;1.63;;;0.85;;
77302;SDS011;66363;49.828;7.856;2023-04-01T05:47:46;1.33;;;0.80;;
77302;SDS011;66363;49.828;7.856;2023-04-01T05:50:12;3.95;;;0.80;;
77302;SDS011;66363;49.828;7.856;2023-04-01T05:52:39;1.88;;;0.80;;
77302;SDS011;66363;49.828;7.856;2023-04-01T05:55:05;3.55;;;1.25;;
77302;SDS011;66363;49.828;7.856;2023-04-01T05:57:31;2.40;;;0.65;;
77302;SDS011;66363;49.828;7.856;2023-04-01T05:59:57;1.20;;;0.60;;
77302;SDS011;66363;49.828;7.856;2023-04-01T06:02:22;2.20;;;0.82;;
77302;SDS011;66363;49.828;7.856;2023-04-01T06:04:48;2.15;;;0.60;;
77302;SDS011;66363;49.828;7.856;2023-04-01T06:07:15;1.15;;;0.50;;
77302;SDS011;66363;49.828;7.856;2023-04-01T06:09:44;3.65;;;0.73;;
77302;SDS011;66363;49.828;7.856;2023-04-01T06:12:17;1.05;;;0.68;;
77302;SDS011;66363;49.828;7.856;2023-04-01T06:15:20;2.78;;;0.40;;
77302;SDS011;66363;49.828;7.856;2023-04-01T06:17:58;1.70;;;0.52;;
77302;SDS011;66363;49.828;7.856;2023-04-01T06:20:39;2.88;;;0.65;;
77302;SDS011;66363;49.828;7.856;2023-04-01T06:23:14;1.48;;;0.70;;
77302;SDS011;66363;49.828;7.856;2023-04-01T06:26:01;2.38;;;0.40;;
77302;SDS011;66363;49.828;7.856;2023-04-01T06:28:46;1.20;;;0.68;;
77302;SDS011;66363;49.828;7.856;2023-04-01T06:31:38;1.05;;;0.30;;
77302;SDS011;66363;49.828;7.856;2023-04-01T06:34:27;0.75;;;0.57;;
77302;SDS011;66363;49.828;7.856;2023-04-01T06:37:15;0.60;;;0.45;;
77302;SDS011;66363;49.828;7.856;2023-04-01T06:40:02;0.65;;;0.43;;
77302;SDS011;66363;49.828;7.856;2023-04-01T06:42:48;0.52;;;0.28;;
77302;SDS011;66363;49.828;7.856;2023-04-01T06:45:32;0.52;;;0.30;;
77302;SDS011;66363;49.828;7.856;2023-04-01T06:48:11;0.55;;;0.15;;
77302;SDS011;66363;49.828;7.856;2023-04-01T06:50:51;0.95;;;0.55;;
77302;SDS011;66363;49.828;7.856;2023-04-01T06:53:24;1.25;;;0.60;;
77302;SDS011;66363;49.828;7.856;2023-04-01T06:55:57;0.98;;;0.40;;
77302;SDS011;66363;49.828;7.856;2023-04-01T06:58:29;1.33;;;0.60;;
77302;SDS011;66363;49.828;7.856;2023-04-01T07:03:29;2.63;;;1.10;;
77302;SDS011;66363;49.828;7.856;2023-04-01T07:05:58;1.75;;;0.43;;
77302;SDS011;66363;49.828;7.856;2023-04-01T07:08:27;0.40;;;0.25;;
77302;SDS011;66363;49.828;7.856;2023-04-01T07:10:58;2.00;;;0.50;;
77302;SDS011;66363;49.828;7.856;2023-04-01T07:13:27;0.55;;;0.25;;
77302;SDS011;66363;49.828;7.856;2023-04-01T07:16:03;0.60;;;0.55;;
77302;SDS011;66363;49.828;7.856;2023-04-01T07:18:38;0.55;;;0.20;;
77302;SDS011;66363;49.828;7.856;2023-04-01T07:21:10;2.53;;;0.47;;
77302;SDS011;66363;49.828;7.856;2023-04-01T07:23:45;0.43;;;0.13;;
77302;SDS011;66363;49.828;7.856;2023-04-01T07:26:14;1.23;;;0.40;;
77302;SDS011;66363;49.828;7.856;2023-04-01T07:28:45;0.30;;;0.30;;
77302;SDS011;66363;49.828;7.856;2023-04-01T07:31:15;0.17;;;0.17;;
77302;SDS011;66363;49.828;7.856;2023-04-01T07:33:46;0.70;;;0.55;;
77302;SDS011;66363;49.828;7.856;2023-04-01T07:36:23;0.75;;;0.40;;
77302;SDS011;66363;49.828;7.856;2023-04-01T07:38:59;0.30;;;0.30;;
77302;SDS011;66363;49.828;7.856;2023-04-01T07:41:39;0.60;;;0.25;;
77302;SDS011;66363;49.828;7.856;2023-04-01T07:44:16;1.25;;;0.52;;
77302;SDS011;66363;49.828;7.856;2023-04-01T07:46:54;1.55;;;0.63;;
77302;SDS011;66363;49.828;7.856;2023-04-01T07:49:31;0.63;;;0.20;;
77302;SDS011;66363;49.828;7.856;2023-04-01T07:52:06;0.82;;;0.47;;
77302;SDS011;66363;49.828;7.856;2023-04-01T07:54:38;0.70;;;0.50;;
77302;SDS011;66363;49.828;7.856;2023-04-01T07:57:12;0.77;;;0.40;;
77302;SDS011;66363;49.828;7.856;2023-04-01T07:59:46;0.85;;;0.45;;
77302;SDS011;66363;49.828;7.856;2023-04-01T08:02:25;0.40;;;0.32;;
77302;SDS011;66363;49.828;7.856;2023-04-01T08:05:01;0.70;;;0.70;;
77302;SDS011;66363;49.828;7.856;2023-04-01T08:07:34;0.57;;;0.50;;
77302;SDS011;66363;49.828;7.856;2023-04-01T08:10:08;1.17;;;0.47;;
77302;SDS011;66363;49.828;7.856;2023-04-01T08:12:42;1.52;;;0.30;;
77302;SDS011;66363;49.828;7.856;2023-04-01T08:15:23;0.47;;;0.28;;
77302;SDS011;66363;49.828;7.856;2023-04-01T08:17:59;1.05;;;0.32;;
77302;SDS011;66363;49.828;7.856;2023-04-01T08:20:36;1.95;;;0.40;;
77302;SDS011;66363;49.828;7.856;2023-04-01T08:23:06;0.50;;;0.30;;
77302;SDS011;66363;49.828;7.856;2023-04-01T08:25:37;2.25;;;0.47;;
77302;SDS011;66363;49.828;7.856;2023-04-01T08:28:09;0.20;;;0.10;;
77302;SDS011;66363;49.828;7.856;2023-04-01T08:30:41;0.43;;;0.20;;
77302;SDS011;66363;49.828;7.856;2023-04-01T08:33:13;0.13;;;0.13;;
77302;SDS011;66363;49.828;7.856;2023-04-01T08:35:46;1.27;;;0.20;;
77302;SDS011;66363;49.828;7.856;2023-04-01T08:38:17;0.17;;;0.17;;
77302;SDS011;66363;49.828;7.856;2023-04-01T08:40:55;0.40;;;0.40;;
77302;SDS011;66363;49.828;7.856;2023-04-01T08:43:28;0.30;;;0.20;;
77302;SDS011;66363;49.828;7.856;2023-04-01T08:46:16;0.50;;;0.40;;
77302;SDS011;66363;49.828;7.856;2023-04-01T08:49:05;0.32;;;0.30;;
77302;SDS011;66363;49.828;7.856;2023-04-01T08:57:56;0.22;;;0.20;;
77302;SDS011;66363;49.828;7.856;2023-04-01T09:00:37;0.10;;;0.10;;
77302;SDS011;66363;49.828;7.856;2023-04-01T09:03:20;0.30;;;0.20;;
77302;SDS011;66363;49.828;7.856;2023-04-01T09:09:05;0.25;;;0.20;;
77302;SDS011;66363;49.828;7.856;2023-04-01T09:11:59;0.10;;;0.10;;
77302;SDS011;66363;49.828;7.856;2023-04-01T09:17:58;0.20;;;0.20;;
77302;SDS011;66363;49.828;7.856;2023-04-01T09:20:47;0.20;;;0.20;;
77302;SDS011;66363;49.828;7.856;2023-04-01T09:26:38;0.60;;;0.20;;
77302;SDS011;66363;49.828;7.856;2023-04-01T09:29:18;0.03;;;0.03;;
77302;SDS011;66363;49.828;7.856;2023-04-01T09:32:02;0.10;;;0.08;;
77302;SDS011;66363;49.828;7.856;2023-04-01T09:34:53;0.55;;;0.50;;
77302;SDS011;66363;49.828;7.856;2023-04-01T09:37:21;0.50;;;0.50;;
77302;SDS011;66363;49.828;7.856;2023-04-01T09:42:45;0.40;;;0.38;;
77302;SDS011;66363;49.828;7.856;2023-04-01T09:45:26;1.00;;;0.47;;
77302;SDS011;66363;49.828;7.856;2023-04-01T09:48:10;0.30;;;0.30;;
77302;SDS011;66363;49.828;7.856;2023-04-01T09:50:50;1.02;;;0.25;;
77302;SDS011;66363;49.828;7.856;2023-04-01T09:53:36;0.82;;;0.47;;
77302;SDS011;66363;49.828;7.856;2023-04-01T10:12:17;0.13;;;0.13;;
77302;SDS011;66363;49.828;7.856;2023-04-01T10:15:29;0.52;;;0.47;;
77302;SDS011;66363;49.828;7.856;2023-04-01T10:21:07;0.05;;;0.05;;
77302;SDS011;66363;49.828;7.856;2023-04-01T10:24:30;0.10;;;0.10;;
77302;SDS011;66363;49.828;7.856;2023-04-01T10:27:16;0.63;;;0.30;;
77302;SDS011;66363;49.828;7.856;2023-04-01T10:33:06;0.60;;;0.60;;
77302;SDS011;66363;49.828;7.856;2023-04-01T10:35:54;1.40;;;1.00;;
77302;SDS011;66363;49.828;7.856;2023-04-01T10:41:31;0.22;;;0.20;;
77302;SDS011;66363;49.828;7.856;2023-04-01T10:47:09;0.45;;;0.30;;
77302;SDS011;66363;49.828;7.856;2023-04-01T10:53:07;1.00;;;0.77;;
77302;SDS011;66363;49.828;7.856;2023-04-01T10:55:58;0.30;;;0.25;;
77302;SDS011;66363;49.828;7.856;2023-04-01T10:58:53;0.50;;;0.50;;
77302;SDS011;66363;49.828;7.856;2023-04-01T11:01:56;0.30;;;0.20;;
77302;SDS011;66363;49.828;7.856;2023-04-01T11:05:05;0.90;;;0.40;;
77302;SDS011;66363;49.828;7.856;2023-04-01T11:14:08;0.70;;;0.35;;
77302;SDS011;66363;49.828;7.856;2023-04-01T11:16:59;0.60;;;0.50;;
77302;SDS011;66363;49.828;7.856;2023-04-01T11:23:00;0.25;;;0.17;;
77302;SDS011;66363;49.828;7.856;2023-04-01T11:25:43;0.25;;;0.20;;
77302;SDS011;66363;49.828;7.856;2023-04-01T11:28:24;0.25;;;0.25;;
77302;SDS011;66363;49.828;7.856;2023-04-01T11:31:15;0.17;;;0.15;;
77302;SDS011;66363;49.828;7.856;2023-04-01T11:33:57;0.50;;;0.45;;
77302;SDS011;66363;49.828;7.856;2023-04-01T11:36:36;0.30;;;0.28;;
77302;SDS011;66363;49.828;7.856;2023-04-01T11:39:13;0.35;;;0.35;;
77302;SDS011;66363;49.828;7.856;2023-04-01T11:41:49;1.20;;;0.32;;
77302;SDS011;66363;49.828;7.856;2023-04-01T11:44:22;0.35;;;0.30;;
77302;SDS011;66363;49.828;7.856;2023-04-01T11:46:59;1.20;;;0.25;;
77302;SDS011;66363;49.828;7.856;2023-04-01T11:49:46;0.28;;;0.15;;
77302;SDS011;66363;49.828;7.856;2023-04-01T11:52:26;0.22;;;0.15;;
77302;SDS011;66363;49.828;7.856;2023-04-01T11:55:06;0.60;;;0.10;;
77302;SDS011;66363;49.828;7.856;2023-04-01T11:57:53;0.30;;;0.30;;
77302;SDS011;66363;49.828;7.856;2023-04-01T12:03:29;0.30;;;0.30;;
77302;SDS011;66363;49.828;7.856;2023-04-01T12:06:08;0.38;;;0.20;;
77302;SDS011;66363;49.828;7.856;2023-04-01T12:08:44;0.28;;;0.22;;
77302;SDS011;66363;49.828;7.856;2023-04-01T12:11:16;0.98;;;0.30;;
77302;SDS011;66363;49.828;7.856;2023-04-01T12:13:49;1.60;;;0.38;;
77302;SDS011;66363;49.828;7.856;2023-04-01T12:16:39;0.70;;;0.47;;
77302;SDS011;66363;49.828;7.856;2023-04-01T12:19:16;1.15;;;0.43;;
77302;SDS011;66363;49.828;7.856;2023-04-01T12:21:58;0.65;;;0.30;;
77302;SDS011;66363;49.828;7.856;2023-04-01T12:24:47;0.55;;;0.47;;
77302;SDS011;66363;49.828;7.856;2023-04-01T12:30:33;0.70;;;0.32;;
77302;SDS011;66363;49.828;7.856;2023-04-01T12:33:13;0.40;;;0.30;;
77302;SDS011;66363;49.828;7.856;2023-04-01T12:35:58;0.25;;;0.20;;
77302;SDS011;66363;49.828;7.856;2023-04-01T12:38:35;0.60;;;0.38;;
77302;SDS011;66363;49.828;7.856;2023-04-01T12:41:09;0.45;;;0.20;;
77302;SDS011;66363;49.828;7.856;2023-04-01T12:46:39;0.40;;;0.30;;
77302;SDS011;66363;49.828;7.856;2023-04-01T12:52:08;0.40;;;0.40;;
77302;SDS011;66363;49.828;7.856;2023-04-01T12:54:48;1.30;;;0.47;;
77302;SDS011;66363;49.828;7.856;2023-04-01T12:57:38;0.88;;;0.32;;
77302;SDS011;66363;49.828;7.856;2023-04-01T13:00:24;0.68;;;0.40;;
77302;SDS011;66363;49.828;7.856;2023-04-01T13:03:10;0.63;;;0.50;;
77302;SDS011;66363;49.828;7.856;2023-04-01T13:11:09;0.35;;;0.25;;
77302;SDS011;66363;49.828;7.856;2023-04-01T13:14:06;0.43;;;0.43;;
77302;SDS011;66363;49.828;7.856;2023-04-01T13:16:51;0.75;;;0.30;;
77302;SDS011;66363;49.828;7.856;2023-04-01T13:19:24;0.35;;;0.30;;
77302;SDS011;66363;49.828;7.856;2023-04-01T13:21:58;0.38;;;0.38;;
77302;SDS011;66363;49.828;7.856;2023-04-01T13:24:35;0.55;;;0.43;;
77302;SDS011;66363;49.828;7.856;2023-04-01T13:27:08;1.08;;;0.35;;
77302;SDS011;66363;49.828;7.856;2023-04-01T13:29:40;0.55;;;0.40;;
77302;SDS011;66363;49.828;7.856;2023-04-01T13:32:12;0.20;;;0.20;;
77302;SDS011;66363;49.828;7.856;2023-04-01T13:34:47;0.20;;;0.20;;
77302;SDS011;66363;49.828;7.856;2023-04-01T13:37:27;1.13;;;0.17;;
77302;SDS011;66363;49.828;7.856;2023-04-01T13:40:18;0.52;;;0.30;;
77302;SDS011;66363;49.828;7.856;2023-04-01T13:42:53;0.38;;;0.30;;
77302;SDS011;66363;49.828;7.856;2023-04-01T13:45:23;0.60;;;0.38;;
77302;SDS011;66363;49.828;7.856;2023-04-01T13:48:05;0.85;;;0.30;;
77302;SDS011;66363;49.828;7.856;2023-04-01T13:53:51;0.68;;;0.50;;
77302;SDS011;66363;49.828;7.856;2023-04-01T13:56:44;0.65;;;0.47;;
77302;SDS011;66363;49.828;7.856;2023-04-01T13:59:29;0.43;;;0.30;;
77302;SDS011;66363;49.828;7.856;2023-04-01T14:02:26;0.57;;;0.40;;
77302;SDS011;66363;49.828;7.856;2023-04-01T14:07:50;0.88;;;0.57;;
77302;SDS011;66363;49.828;7.856;2023-04-01T14:10:25;1.52;;;0.70;;
77302;SDS011;66363;49.828;7.856;2023-04-01T14:13:00;1.23;;;0.60;;
77302;SDS011;66363;49.828;7.856;2023-04-01T14:15:41;2.88;;;0.40;;
77302;SDS011;66363;49.828;7.856;2023-04-01T14:18:20;0.28;;;0.20;;
77302;SDS011;66363;49.828;7.856;2023-04-01T14:21:13;0.40;;;0.40;;
77302;SDS011;66363;49.828;7.856;2023-04-01T14:23:50;0.65;;;0.28;;
77302;SDS011;66363;49.828;7.856;2023-04-01T14:29:34;0.63;;;0.25;;
77302;SDS011;66363;49.828;7.856;2023-04-01T14:32:11;0.68;;;0.68;;
77302;SDS011;66363;49.828;7.856;2023-04-01T14:34:49;0.25;;;0.25;;
77302;SDS011;66363;49.828;7.856;2023-04-01T14:37:35;0.38;;;0.25;;
77302;SDS011;66363;49.828;7.856;2023-04-01T14:42:58;0.20;;;0.20;;
77302;SDS011;66363;49.828;7.856;2023-04-01T14:48:31;0.50;;;0.30;;
77302;SDS011;66363;49.828;7.856;2023-04-01T14:51:03;0.30;;;0.30;;
77302;SDS011;66363;49.828;7.856;2023-04-01T14:53:36;0.57;;;0.40;;
77302;SDS011;66363;49.828;7.856;2023-04-01T14:56:07;0.10;;;0.10;;
77302;SDS011;66363;49.828;7.856;2023-04-01T14:58:43;0.32;;;0.20;;
77302;SDS011;66363;49.828;7.856;2023-04-01T15:01:17;0.68;;;0.38;;
77302;SDS011;66363;49.828;7.856;2023-04-01T15:03:56;0.32;;;0.20;;
77302;SDS011;66363;49.828;7.856;2023-04-01T15:06:39;0.20;;;0.20;;
77302;SDS011;66363;49.828;7.856;2023-04-01T15:09:19;0.45;;;0.20;;
77302;SDS011;66363;49.828;7.856;2023-04-01T15:11:57;1.83;;;0.32;;
77302;SDS011;66363;49.828;7.856;2023-04-01T15:17:37;0.55;;;0.40;;
77302;SDS011;66363;49.828;7.856;2023-04-01T15:20:20;0.47;;;0.47;;
77302;SDS011;66363;49.828;7.856;2023-04-01T15:23:00;0.93;;;0.40;;
77302;SDS011;66363;49.828;7.856;2023-04-01T15:28:10;0.35;;;0.30;;
77302;SDS011;66363;49.828;7.856;2023-04-01T15:30:46;0.40;;;0.40;;
77302;SDS011;66363;49.828;7.856;2023-04-01T15:33:27;0.90;;;0.32;;
77302;SDS011;66363;49.828;7.856;2023-04-01T15:36:04;0.57;;;0.40;;
77302;SDS011;66363;49.828;7.856;2023-04-01T15:38:40;0.85;;;0.40;;
77302;SDS011;66363;49.828;7.856;2023-04-01T15:41:14;0.45;;;0.20;;
77302;SDS011;66363;49.828;7.856;2023-04-01T15:43:41;0.68;;;0.45;;
77302;SDS011;66363;49.828;7.856;2023-04-01T15:46:12;0.73;;;0.20;;
77302;SDS011;66363;49.828;7.856;2023-04-01T15:51:22;0.20;;;0.20;;
77302;SDS011;66363;49.828;7.856;2023-04-01T15:54:05;1.02;;;0.57;;
77302;SDS011;66363;49.828;7.856;2023-04-01T15:56:49;0.43;;;0.43;;
77302;SDS011;66363;49.828;7.856;2023-04-01T15:59:25;0.13;;;0.13;;
77302;SDS011;66363;49.828;7.856;2023-04-01T16:02:13;1.50;;;0.50;;
77302;SDS011;66363;49.828;7.856;2023-04-01T16:04:54;0.52;;;0.30;;
77302;SDS011;66363;49.828;7.856;2023-04-01T16:07:36;0.22;;;0.13;;
77302;SDS011;66363;49.828;7.856;2023-04-01T16:10:17;0.40;;;0.30;;
77302;SDS011;66363;49.828;7.856;2023-04-01T16:12:54;1.25;;;0.68;;
77302;SDS011;66363;49.828;7.856;2023-04-01T16:15:35;0.45;;;0.22;;
77302;SDS011;66363;49.828;7.856;2023-04-01T16:18:08;2.33;;;0.60;;
77302;SDS011;66363;49.828;7.856;2023-04-01T16:20:49;0.22;;;0.20;;
77302;SDS011;66363;49.828;7.856;2023-04-01T16:23:20;0.30;;;0.28;;
77302;SDS011;66363;49.828;7.856;2023-04-01T16:25:52;1.80;;;0.50;;
77302;SDS011;66363;49.828;7.856;2023-04-01T16:28:27;0.30;;;0.20;;
77302;SDS011;66363;49.828;7.856;2023-04-01T16:30:58;0.20;;;0.20;;
77302;SDS011;66363;49.828;7.856;2023-04-01T16:36:05;0.95;;;0.60;;
77302;SDS011;66363;49.828;7.856;2023-04-01T16:38:38;0.52;;;0.50;;
77302;SDS011;66363;49.828;7.856;2023-04-01T16:41:10;0.57;;;0.28;;
77302;SDS011;66363;49.828;7.856;2023-04-01T16:43:42;0.52;;;0.35;;
77302;SDS011;66363;49.828;7.856;2023-04-01T16:46:15;1.27;;;0.73;;
77302;SDS011;66363;49.828;7.856;2023-04-01T16:49:04;0.68;;;0.38;;
77302;SDS011;66363;49.828;7.856;2023-04-01T16:51:45;1.42;;;0.60;;
77302;SDS011;66363;49.828;7.856;2023-04-01T16:54:19;0.82;;;0.60;;
77302;SDS011;66363;49.828;7.856;2023-04-01T16:56:56;0.47;;;0.40;;
77302;SDS011;66363;49.828;7.856;2023-04-01T16:59:33;1.85;;;0.43;;
77302;SDS011;66363;49.828;7.856;2023-04-01T17:02:02;0.52;;;0.40;;
77302;SDS011;66363;49.828;7.856;2023-04-01T17:04:34;0.60;;;0.20;;
77302;SDS011;66363;49.828;7.856;2023-04-01T17:07:10;0.60;;;0.35;;
77302;SDS011;66363;49.828;7.856;2023-04-01T17:09:51;1.58;;;0.50;;
77302;SDS011;66363;49.828;7.856;2023-04-01T17:12:28;0.77;;;0.30;;
77302;SDS011;66363;49.828;7.856;2023-04-01T17:15:05;1.08;;;0.40;;
77302;SDS011;66363;49.828;7.856;2023-04-01T17:17:43;1.10;;;0.38;;
77302;SDS011;66363;49.828;7.856;2023-04-01T17:20:19;0.30;;;0.13;;
77302;SDS011;66363;49.828;7.856;2023-04-01T17:23:10;0.20;;;0.20;;
77302;SDS011;66363;49.828;7.856;2023-04-01T17:25:46;0.73;;;0.50;;